createdAt,value
2019-05-20T00:06:29.477Z,20.73
2019-05-20T00:20:12.296Z,14.67
2019-05-20T00:24:45.859Z,23.00
2019-05-20T00:29:19.060Z,15.97
2019-05-20T00:33:51.391Z,19.20
2019-05-20T00:38:25.583Z,18.77
2019-05-20T00:42:57.169Z,17.17
2019-05-20T00:47:31.221Z,16.37
2019-05-20T00:52:06.422Z,18.07
2019-05-20T00:56:41.001Z,16.90
2019-05-20T01:01:11.270Z,16.20
2019-05-20T01:06:02.517Z,13.60
2019-05-20T01:10:33.749Z,17.97
2019-05-20T01:15:06.872Z,14.87
2019-05-20T01:19:38.401Z,13.20
2019-05-20T01:24:10.777Z,19.93
2019-05-20T01:28:46.201Z,16.17
2019-05-20T01:33:18.919Z,20.50
2019-05-20T01:37:49.057Z,17.73
2019-05-20T01:46:49.910Z,19.03
2019-05-20T01:51:22.284Z,19.80
2019-05-20T01:55:59.010Z,17.07
2019-05-20T02:00:35.132Z,16.10
2019-05-20T02:05:05.839Z,16.83
2019-05-20T02:09:40.729Z,15.83
2019-05-20T02:14:18.404Z,20.87
2019-05-20T02:18:55.971Z,22.10
2019-05-20T02:23:29.608Z,16.87
2019-05-20T02:28:01.920Z,21.20
2019-05-20T02:32:33.173Z,18.40
2019-05-20T02:37:14.220Z,17.93
2019-05-20T02:41:46.733Z,18.83
2019-05-20T02:46:22.284Z,21.30
2019-05-20T02:51:15.844Z,21.37
2019-05-20T03:00:34.855Z,28.73
2019-05-20T03:05:07.042Z,26.23
2019-05-20T03:09:38.021Z,19.27
2019-05-20T03:14:17.145Z,22.80
2019-05-20T03:18:56.697Z,22.13
2019-05-20T03:34:01.560Z,18.20
2019-05-20T04:02:40.308Z,22.87
2019-05-20T04:07:51.292Z,16.33
2019-05-20T04:22:39.902Z,13.53
2019-05-20T04:27:28.090Z,21.40
2019-05-20T04:32:04.188Z,13.37
2019-05-20T04:36:36.379Z,20.90
2019-05-20T04:41:13.976Z,15.37
2019-05-20T04:45:51.996Z,17.40
2019-05-20T04:50:27.189Z,14.60
2019-05-20T04:55:01.219Z,14.37
2019-05-20T04:59:53.987Z,18.90
2019-05-20T05:09:23.075Z,13.40
2019-05-20T05:13:59.357Z,14.67
2019-05-20T05:18:36.998Z,12.70
2019-05-20T05:23:12.033Z,16.90
2019-05-20T05:27:51.913Z,14.53
2019-05-20T05:32:25.971Z,14.53
2019-05-20T05:37:00.263Z,16.63
2019-05-20T05:41:54.689Z,19.23
2019-05-20T05:51:10.941Z,11.03
2019-05-20T05:55:44.809Z,19.60
2019-05-20T06:00:22.387Z,14.30
2019-05-20T06:04:56.988Z,18.70
2019-05-20T06:09:28.750Z,13.00
2019-05-20T06:14:03.237Z,21.30
2019-05-20T06:18:39.551Z,14.90
2019-05-20T06:23:19.337Z,19.67
2019-05-20T06:27:51.391Z,18.10
2019-05-20T06:32:58.522Z,12.70
2019-05-20T06:37:34.223Z,18.80
2019-05-20T06:42:12.513Z,15.90
2019-05-20T06:46:48.646Z,13.10
2019-05-20T06:51:21.917Z,13.80
2019-05-20T06:56:12.413Z,14.63
2019-05-20T07:00:53.308Z,16.00
2019-05-20T07:05:33.842Z,11.83
2019-05-20T07:10:11.731Z,15.63
2019-05-20T07:14:48.162Z,15.07
2019-05-20T07:19:27.093Z,15.43
2019-05-20T07:24:06.737Z,18.93
2019-05-20T07:28:42.636Z,11.97
2019-05-20T07:33:15.170Z,15.40
2019-05-20T07:37:51.354Z,14.80
2019-05-20T07:42:27.245Z,24.03
2019-05-20T07:47:03.675Z,15.10
2019-05-20T08:05:50.809Z,14.57
2019-05-20T08:15:20.886Z,15.97
2019-05-20T08:19:58.891Z,14.57
2019-05-20T08:24:51.277Z,10.47
2019-05-20T08:29:23.426Z,14.10
2019-05-20T08:33:56.393Z,13.57
2019-05-20T08:38:29.120Z,15.03
2019-05-20T08:43:09.044Z,18.50
2019-05-20T08:47:40.964Z,12.37
2019-05-20T08:52:15.516Z,13.23
2019-05-20T08:56:49.553Z,12.67
2019-05-20T09:10:39.307Z,12.30
2019-05-20T09:19:47.243Z,13.83
2019-05-20T09:24:20.531Z,27.97
2019-05-20T09:28:52.100Z,18.53
2019-05-20T09:33:25.840Z,12.93
2019-05-20T09:38:01.536Z,11.57
2019-05-20T09:42:32.019Z,17.97
2019-05-20T09:47:05.569Z,15.40
2019-05-20T09:51:41.334Z,10.67
2019-05-20T09:56:33.348Z,11.70
2019-05-20T10:01:26.813Z,14.93
2019-05-20T10:10:44.038Z,10.87
2019-05-20T10:15:19.822Z,13.40
2019-05-20T10:19:53.501Z,16.80
2019-05-20T10:24:26.249Z,16.73
2019-05-20T10:28:59.827Z,17.70
2019-05-20T10:33:36.919Z,16.47
2019-05-20T10:38:12.183Z,13.50
2019-05-20T10:42:44.593Z,18.37
2019-05-20T10:47:17.365Z,16.53
2019-05-20T10:51:49.055Z,13.70
2019-05-20T10:56:24.720Z,19.83
2019-05-20T11:01:03.208Z,19.20
2019-05-20T11:05:49.972Z,18.10
2019-05-20T11:15:08.834Z,14.20
2019-05-20T11:19:40.136Z,18.30
2019-05-20T11:28:52.842Z,17.37
2019-05-20T11:33:25.897Z,22.93
2019-05-20T11:42:37.401Z,17.90
2019-05-20T11:47:13.519Z,28.47
2019-05-20T11:51:44.483Z,19.50
2019-05-20T11:56:18.151Z,17.70
2019-05-20T12:00:50.371Z,18.30
2019-05-20T12:05:28.050Z,20.00
2019-05-20T12:10:05.846Z,20.30
2019-05-20T12:14:38.538Z,24.87
2019-05-20T12:19:30.141Z,31.27
2019-05-20T12:24:06.471Z,21.43
2019-05-20T12:29:00.642Z,26.47
2019-05-20T12:38:07.289Z,23.53
2019-05-20T12:42:40.427Z,27.23
2019-05-20T12:47:12.434Z,26.53
2019-05-20T12:51:44.237Z,23.47
2019-05-20T12:56:19.708Z,23.53
2019-05-20T13:00:53.300Z,23.30
2019-05-20T13:05:27.183Z,30.80
2019-05-20T13:10:29.863Z,29.23
2019-05-20T13:14:57.847Z,25.90
2019-05-20T13:19:30.437Z,20.70
2019-05-20T13:24:04.251Z,23.93
2019-05-20T13:28:36.025Z,22.90
2019-05-20T13:33:11.125Z,25.23
2019-05-20T13:37:48.425Z,22.63
2019-05-20T13:42:22.149Z,22.73
2019-05-20T13:47:01.612Z,23.60
2019-05-20T13:51:38.775Z,20.87
2019-05-20T13:56:11.274Z,19.83
2019-05-20T14:00:46.246Z,17.93
2019-05-20T14:05:21.493Z,19.30
2019-05-20T14:09:57.423Z,19.50
2019-05-20T14:19:06.911Z,16.37
2019-05-20T14:23:46.156Z,16.93
2019-05-20T14:33:16.186Z,12.73
2019-05-20T14:37:52.083Z,14.43
2019-05-20T14:42:27.564Z,16.63
2019-05-20T14:47:03.104Z,14.80
2019-05-20T14:51:40.398Z,14.17
2019-05-20T14:56:16.255Z,15.53
2019-05-20T15:00:48.585Z,12.87
2019-05-20T15:05:24.598Z,14.53
2019-05-20T15:09:57.004Z,20.80
2019-05-20T15:14:29.358Z,11.13
2019-05-20T15:19:08.574Z,16.80
2019-05-20T15:23:44.321Z,11.97
2019-05-20T15:28:19.336Z,13.67
2019-05-20T15:32:50.029Z,15.83
2019-05-20T15:37:59.939Z,11.73
2019-05-20T15:42:32.430Z,14.40
2019-05-20T15:47:05.690Z,10.60
2019-05-20T15:56:12.666Z,17.30
2019-05-20T16:00:55.764Z,11.43
2019-05-20T16:24:19.347Z,15.80
2019-05-20T17:34:41.755Z,18.87
2019-05-20T17:39:17.450Z,25.90
2019-05-20T17:48:27.378Z,21.00
2019-05-20T17:53:33.256Z,17.87
2019-05-20T17:58:10.678Z,18.77
2019-05-20T18:02:42.478Z,19.60
2019-05-20T18:07:19.318Z,18.17
2019-05-20T18:48:54.660Z,22.83
2019-05-20T19:02:48.064Z,26.53
2019-05-20T19:07:22.064Z,20.57
2019-05-20T19:12:14.525Z,26.20
2019-05-20T19:16:52.094Z,22.60
2019-05-20T19:21:26.268Z,27.43
2019-05-20T19:26:02.529Z,23.40
2019-05-20T19:44:44.026Z,28.77
2019-05-20T19:49:21.462Z,23.63
2019-05-20T19:54:00.283Z,27.23
2019-05-20T20:03:19.205Z,34.50
2019-05-20T20:07:52.727Z,39.33
2019-05-20T20:12:29.052Z,35.37
2019-05-20T20:17:03.273Z,33.27
2019-05-20T20:21:34.667Z,45.07
2019-05-20T20:26:10.515Z,37.77
2019-05-20T20:30:47.413Z,35.10
2019-05-20T20:44:27.432Z,29.37
2019-05-20T20:58:25.054Z,23.43
2019-05-20T21:02:57.345Z,27.80
2019-05-20T21:12:05.292Z,28.33
2019-05-20T21:16:37.274Z,25.60
2019-05-20T21:21:17.775Z,31.77
2019-05-20T21:25:51.015Z,25.67
2019-05-20T21:30:27.681Z,26.30
2019-05-20T21:35:05.468Z,24.50
2019-05-20T21:39:39.186Z,20.73
2019-05-20T21:48:52.128Z,21.47
2019-05-20T21:53:17.409Z,23.50
2019-05-20T21:57:48.209Z,23.97
2019-05-20T22:02:26.859Z,24.50
2019-05-20T22:07:02.016Z,21.17
2019-05-20T22:11:36.253Z,25.97
2019-05-20T22:16:16.297Z,23.67
2019-05-20T22:20:50.111Z,23.27
2019-05-20T22:40:25.382Z,32.57
2019-05-20T22:44:58.577Z,33.43
2019-05-20T22:49:30.758Z,33.03
2019-05-20T22:54:10.905Z,35.33
2019-05-20T22:58:42.975Z,28.03
2019-05-20T23:03:16.312Z,32.80
2019-05-20T23:07:50.257Z,30.67
2019-05-20T23:12:24.872Z,23.93
2019-05-20T23:17:02.987Z,21.53
2019-05-20T23:21:33.938Z,22.70
2019-05-20T23:26:12.483Z,20.43
2019-05-20T23:31:03.002Z,21.47
2019-05-20T23:35:34.726Z,22.37
2019-05-20T23:40:06.833Z,18.07
2019-05-20T23:44:43.925Z,18.30
2019-05-20T23:49:16.151Z,20.40
2019-05-20T23:58:36.517Z,21.83
